sensor_id;sensor_type;location;lat;lon;timestamp;pressure;altitude;pressure_sealevel;temperature;humidity
31595;BME280;18200;48.726;8.892;2023-06-22T00:00:03;96800.88;;;34.66;36.51
31595;BME280;18200;48.726;8.892;2023-06-22T00:04:12;96799.47;;;35.00;36.17
31595;BME280;18200;48.726;8.892;2023-06-22T00:08:13;96805.34;;;34.17;37.18
31595;BME280;18200;48.726;8.892;2023-06-22T00:12:13;96799.09;;;34.69;36.89
31595;BME280;18200;48.726;8.892;2023-06-22T00:16:13;96810.97;;;34.01;37.04
31595;BME280;18200;48.726;8.892;2023-06-22T00:20:14;96826.28;;;34.46;37.46
31595;BME280;18200;48.726;8.892;2023-06-22T00:24:14;96809.69;;;34.81;36.57
31595;BME280;18200;48.726;8.892;2023-06-22T00:28:15;96800.44;;;34.51;36.06
31595;BME280;18200;48.726;8.892;2023-06-22T00:32:15;96809.69;;;33.80;38.23
31595;BME280;18200;48.726;8.892;2023-06-22T00:36:17;96818.28;;;34.09;37.61
31595;BME280;18200;48.726;8.892;2023-06-22T00:40:19;96789.47;;;34.59;36.06
31595;BME280;18200;48.726;8.892;2023-06-22T00:44:21;96833.25;;;34.06;36.68
31595;BME280;18200;48.726;8.892;2023-06-22T00:48:22;96871.50;;;33.50;38.06
31595;BME280;18200;48.726;8.892;2023-06-22T00:52:23;96853.47;;;33.24;38.71
31595;BME280;18200;48.726;8.892;2023-06-22T00:56:29;96873.22;;;32.67;39.49
31595;BME280;18200;48.726;8.892;2023-06-22T01:00:30;96861.97;;;32.98;39.05
31595;BME280;18200;48.726;8.892;2023-06-22T01:04:35;96836.03;;;33.79;37.68
31595;BME280;18200;48.726;8.892;2023-06-22T01:17:41;96809.09;;;34.31;36.55
31595;BME280;18200;48.726;8.892;2023-06-22T01:21:45;96811.91;;;34.25;36.78
31595;BME280;18200;48.726;8.892;2023-06-22T01:26:06;96797.03;;;33.51;38.04
31595;BME280;18200;48.726;8.892;2023-06-22T01:30:10;96799.00;;;33.39;37.76
31595;BME280;18200;48.726;8.892;2023-06-22T01:34:11;96822.31;;;33.36;37.86
31595;BME280;18200;48.726;8.892;2023-06-22T01:38:13;96808.16;;;33.34;38.39
31595;BME280;18200;48.726;8.892;2023-06-22T01:42:13;96811.72;;;33.63;37.39
31595;BME280;18200;48.726;8.892;2023-06-22T01:46:15;96808.16;;;33.45;37.72
31595;BME280;18200;48.726;8.892;2023-06-22T01:50:15;96813.22;;;33.80;36.95
31595;BME280;18200;48.726;8.892;2023-06-22T01:54:16;96828.06;;;32.94;38.40
31595;BME280;18200;48.726;8.892;2023-06-22T01:58:16;96815.53;;;33.54;37.69
31595;BME280;18200;48.726;8.892;2023-06-22T02:02:19;96826.69;;;33.82;36.87
31595;BME280;18200;48.726;8.892;2023-06-22T02:06:24;96851.44;;;33.30;38.04
31595;BME280;18200;48.726;8.892;2023-06-22T02:10:26;96838.41;;;32.88;38.53
31595;BME280;18200;48.726;8.892;2023-06-22T02:14:30;96830.72;;;33.53;37.58
31595;BME280;18200;48.726;8.892;2023-06-22T02:18:31;96824.38;;;33.52;37.92
31595;BME280;18200;48.726;8.892;2023-06-22T02:22:32;96810.44;;;33.63;36.89
31595;BME280;18200;48.726;8.892;2023-06-22T02:26:32;96804.88;;;33.41;37.37
31595;BME280;18200;48.726;8.892;2023-06-22T02:30:35;96803.31;;;33.29;37.51
31595;BME280;18200;48.726;8.892;2023-06-22T02:34:35;96801.06;;;32.47;39.10
31595;BME280;18200;48.726;8.892;2023-06-22T02:38:36;96801.25;;;33.02;38.11
31595;BME280;18200;48.726;8.892;2023-06-22T02:42:37;96797.63;;;32.74;38.01
31595;BME280;18200;48.726;8.892;2023-06-22T02:46:38;96795.16;;;32.98;38.46
31595;BME280;18200;48.726;8.892;2023-06-22T02:50:38;96781.47;;;32.95;38.08
31595;BME280;18200;48.726;8.892;2023-06-22T02:54:39;96797.28;;;32.50;38.75
31595;BME280;18200;48.726;8.892;2023-06-22T02:58:40;96804.34;;;32.51;39.06
31595;BME280;18200;48.726;8.892;2023-06-22T03:02:45;96789.13;;;33.05;37.58
31595;BME280;18200;48.726;8.892;2023-06-22T03:06:45;96796.31;;;32.64;38.57
31595;BME280;18200;48.726;8.892;2023-06-22T03:10:51;96796.00;;;32.51;38.46
31595;BME280;18200;48.726;8.892;2023-06-22T03:14:52;96795.09;;;32.76;38.28
31595;BME280;18200;48.726;8.892;2023-06-22T03:18:53;96793.31;;;32.73;38.85
31595;BME280;18200;48.726;8.892;2023-06-22T03:22:56;96774.63;;;32.90;38.12
31595;BME280;18200;48.726;8.892;2023-06-22T03:26:57;96783.25;;;32.92;38.07
31595;BME280;18200;48.726;8.892;2023-06-22T03:30:58;96783.06;;;33.34;37.12
31595;BME280;18200;48.726;8.892;2023-06-22T03:34:58;96781.06;;;33.51;37.08
31595;BME280;18200;48.726;8.892;2023-06-22T03:39:00;96773.44;;;33.35;36.31
31595;BME280;18200;48.726;8.892;2023-06-22T03:43:00;96780.13;;;32.68;38.45
31595;BME280;18200;48.726;8.892;2023-06-22T03:47:04;96759.00;;;33.20;37.55
31595;BME280;18200;48.726;8.892;2023-06-22T03:51:04;96773.66;;;33.93;36.35
31595;BME280;18200;48.726;8.892;2023-06-22T03:55:06;96774.22;;;33.63;36.56
31595;BME280;18200;48.726;8.892;2023-06-22T03:59:06;96768.38;;;33.73;36.04
31595;BME280;18200;48.726;8.892;2023-06-22T04:03:07;96774.47;;;33.60;36.27
31595;BME280;18200;48.726;8.892;2023-06-22T04:07:07;96761.84;;;34.44;34.63
31595;BME280;18200;48.726;8.892;2023-06-22T04:11:08;96747.66;;;34.53;35.18
31595;BME280;18200;48.726;8.892;2023-06-22T04:15:09;96762.31;;;33.63;35.63
31595;BME280;18200;48.726;8.892;2023-06-22T04:19:09;96758.50;;;33.49;36.97
31595;BME280;18200;48.726;8.892;2023-06-22T04:23:16;96747.13;;;34.49;35.46
31595;BME280;18200;48.726;8.892;2023-06-22T04:27:16;96751.69;;;35.04;34.01
31595;BME280;18200;48.726;8.892;2023-06-22T04:31:17;96746.72;;;35.27;32.66
31595;BME280;18200;48.726;8.892;2023-06-22T04:35:19;96750.19;;;34.51;35.40
31595;BME280;18200;48.726;8.892;2023-06-22T04:39:19;96742.09;;;35.29;33.93
31595;BME280;18200;48.726;8.892;2023-06-22T04:43:20;96736.38;;;35.16;34.00
31595;BME280;18200;48.726;8.892;2023-06-22T04:47:20;96739.91;;;35.52;33.16
31595;BME280;18200;48.726;8.892;2023-06-22T04:51:21;96732.69;;;35.62;33.03
31595;BME280;18200;48.726;8.892;2023-06-22T04:55:21;96736.22;;;34.97;33.96
31595;BME280;18200;48.726;8.892;2023-06-22T04:59:23;96739.28;;;34.99;35.02
31595;BME280;18200;48.726;8.892;2023-06-22T05:03:28;96733.63;;;35.40;33.76
31595;BME280;18200;48.726;8.892;2023-06-22T05:07:28;96722.97;;;35.93;32.74
31595;BME280;18200;48.726;8.892;2023-06-22T05:11:28;96726.53;;;36.17;32.67
31595;BME280;18200;48.726;8.892;2023-06-22T05:15:29;96720.13;;;36.22;32.30
31595;BME280;18200;48.726;8.892;2023-06-22T05:19:33;96706.94;;;36.36;32.42
31595;BME280;18200;48.726;8.892;2023-06-22T05:23:33;96713.34;;;36.12;32.62
31595;BME280;18200;48.726;8.892;2023-06-22T05:27:34;96704.13;;;36.17;33.28
31595;BME280;18200;48.726;8.892;2023-06-22T05:31:34;96700.41;;;35.85;33.16
31595;BME280;18200;48.726;8.892;2023-06-22T05:35:34;96701.56;;;36.19;33.25
31595;BME280;18200;48.726;8.892;2023-06-22T05:39:35;96709.47;;;35.13;35.23
31595;BME280;18200;48.726;8.892;2023-06-22T05:43:38;96717.31;;;34.22;37.57
31595;BME280;18200;48.726;8.892;2023-06-22T05:47:38;96706.78;;;34.96;36.29
31595;BME280;18200;48.726;8.892;2023-06-22T05:51:39;96707.06;;;35.82;33.98
31595;BME280;18200;48.726;8.892;2023-06-22T05:55:39;96704.59;;;36.40;33.62
31595;BME280;18200;48.726;8.892;2023-06-22T05:59:40;96714.88;;;35.89;34.93
31595;BME280;18200;48.726;8.892;2023-06-22T06:03:41;96707.63;;;36.23;33.64
31595;BME280;18200;48.726;8.892;2023-06-22T06:07:45;96702.75;;;36.67;33.55
31595;BME280;18200;48.726;8.892;2023-06-22T06:11:45;96696.47;;;36.61;33.46
31595;BME280;18200;48.726;8.892;2023-06-22T06:15:46;96691.03;;;36.49;33.91
31595;BME280;18200;48.726;8.892;2023-06-22T06:19:46;96693.72;;;36.36;33.50
31595;BME280;18200;48.726;8.892;2023-06-22T06:23:46;96704.56;;;36.45;33.11
31595;BME280;18200;48.726;8.892;2023-06-22T06:27:48;96700.63;;;36.73;32.96
31595;BME280;18200;48.726;8.892;2023-06-22T06:31:49;96702.34;;;37.58;31.61
31595;BME280;18200;48.726;8.892;2023-06-22T06:35:49;96703.69;;;37.06;32.19
31595;BME280;18200;48.726;8.892;2023-06-22T06:39:50;96697.66;;;37.34;31.67
31595;BME280;18200;48.726;8.892;2023-06-22T06:43:50;96709.66;;;37.48;31.28
31595;BME280;18200;48.726;8.892;2023-06-22T06:47:52;96698.81;;;37.25;31.28
31595;BME280;18200;48.726;8.892;2023-06-22T06:51:52;96696.00;;;36.94;30.70
31595;BME280;18200;48.726;8.892;2023-06-22T06:55:53;96694.47;;;37.56;30.71
31595;BME280;18200;48.726;8.892;2023-06-22T06:59:53;96683.84;;;37.94;29.78
31595;BME280;18200;48.726;8.892;2023-06-22T07:03:54;96681.75;;;38.34;29.22
31595;BME280;18200;48.726;8.892;2023-06-22T07:07:56;96678.63;;;38.84;28.80
31595;BME280;18200;48.726;8.892;2023-06-22T07:11:56;96666.22;;;38.79;28.49
31595;BME280;18200;48.726;8.892;2023-06-22T07:15:57;96664.97;;;37.81;29.18
31595;BME280;18200;48.726;8.892;2023-06-22T07:19:57;96670.50;;;39.14;27.77
31595;BME280;18200;48.726;8.892;2023-06-22T07:23:58;96663.41;;;39.00;28.10
31595;BME280;18200;48.726;8.892;2023-06-22T07:28:01;96656.91;;;39.05;28.21
31595;BME280;18200;48.726;8.892;2023-06-22T07:32:02;96649.75;;;38.50;29.10
31595;BME280;18200;48.726;8.892;2023-06-22T07:36:04;96635.41;;;38.74;28.56
31595;BME280;18200;48.726;8.892;2023-06-22T07:40:08;96634.06;;;39.29;27.25
31595;BME280;18200;48.726;8.892;2023-06-22T07:44:09;96637.75;;;38.83;27.90
31595;BME280;18200;48.726;8.892;2023-06-22T07:48:09;96649.34;;;39.00;27.78
31595;BME280;18200;48.726;8.892;2023-06-22T07:52:10;96646.75;;;39.43;27.81
31595;BME280;18200;48.726;8.892;2023-06-22T07:56:11;96662.81;;;40.20;26.35
31595;BME280;18200;48.726;8.892;2023-06-22T08:00:11;96665.84;;;39.94;26.87
31595;BME280;18200;48.726;8.892;2023-06-22T08:04:17;96658.94;;;39.67;27.33
31595;BME280;18200;48.726;8.892;2023-06-22T08:08:17;96672.44;;;39.96;27.06
31595;BME280;18200;48.726;8.892;2023-06-22T08:12:17;96691.84;;;38.63;28.44
31595;BME280;18200;48.726;8.892;2023-06-22T08:16:19;96702.34;;;38.96;28.47
31595;BME280;18200;48.726;8.892;2023-06-22T08:20:19;96705.97;;;39.59;27.46
31595;BME280;18200;48.726;8.892;2023-06-22T08:24:19;96707.25;;;39.58;27.95
31595;BME280;18200;48.726;8.892;2023-06-22T08:28:20;96712.25;;;39.51;27.27
31595;BME280;18200;48.726;8.892;2023-06-22T08:32:20;96709.78;;;39.69;27.93
31595;BME280;18200;48.726;8.892;2023-06-22T08:36:21;96692.09;;;40.53;26.80
31595;BME280;18200;48.726;8.892;2023-06-22T08:40:22;96678.00;;;40.53;26.94
31595;BME280;18200;48.726;8.892;2023-06-22T08:44:23;96669.09;;;40.92;26.26
31595;BME280;18200;48.726;8.892;2023-06-22T08:48:23;96693.59;;;40.18;27.70
31595;BME280;18200;48.726;8.892;2023-06-22T08:52:24;96699.19;;;40.10;28.18
31595;BME280;18200;48.726;8.892;2023-06-22T08:56:24;96690.16;;;37.68;31.10
31595;BME280;18200;48.726;8.892;2023-06-22T09:00:24;96701.56;;;39.29;29.42
31595;BME280;18200;48.726;8.892;2023-06-22T09:04:25;96690.66;;;38.25;31.34
31595;BME280;18200;48.726;8.892;2023-06-22T09:08:25;96678.53;;;41.10;26.35
31595;BME280;18200;48.726;8.892;2023-06-22T09:12:26;96660.50;;;41.28;26.18
31595;BME280;18200;48.726;8.892;2023-06-22T09:16:27;96647.72;;;41.57;26.37
31595;BME280;18200;48.726;8.892;2023-06-22T09:20:27;96654.88;;;41.28;26.62
31595;BME280;18200;48.726;8.892;2023-06-22T09:24:28;96637.88;;;41.88;25.89
31595;BME280;18200;48.726;8.892;2023-06-22T09:28:28;96640.16;;;41.07;26.37
31595;BME280;18200;48.726;8.892;2023-06-22T09:32:28;96629.63;;;41.75;25.62
31595;BME280;18200;48.726;8.892;2023-06-22T09:36:29;96622.31;;;41.12;25.92
31595;BME280;18200;48.726;8.892;2023-06-22T09:40:29;96603.69;;;40.93;26.74
31595;BME280;18200;48.726;8.892;2023-06-22T09:44:29;96611.13;;;41.97;24.93
31595;BME280;18200;48.726;8.892;2023-06-22T09:48:30;96597.00;;;42.44;24.22
31595;BME280;18200;48.726;8.892;2023-06-22T09:52:30;96600.78;;;42.39;24.91
31595;BME280;18200;48.726;8.892;2023-06-22T09:56:31;96590.19;;;43.87;22.78
31595;BME280;18200;48.726;8.892;2023-06-22T10:00:31;96588.81;;;43.37;23.87
31595;BME280;18200;48.726;8.892;2023-06-22T10:04:32;96573.53;;;43.57;23.16
31595;BME280;18200;48.726;8.892;2023-06-22T10:08:33;96573.69;;;43.59;23.14
31595;BME280;18200;48.726;8.892;2023-06-22T10:12:33;96575.84;;;43.51;23.58
31595;BME280;18200;48.726;8.892;2023-06-22T10:16:36;96574.13;;;44.07;23.87
31595;BME280;18200;48.726;8.892;2023-06-22T10:20:36;96577.16;;;44.89;22.27
31595;BME280;18200;48.726;8.892;2023-06-22T10:24:36;96592.09;;;43.51;23.84
31595;BME280;18200;48.726;8.892;2023-06-22T10:28:38;96577.84;;;44.80;22.01
31595;BME280;18200;48.726;8.892;2023-06-22T10:32:39;96574.16;;;44.87;22.04
31595;BME280;18200;48.726;8.892;2023-06-22T10:36:40;96569.22;;;45.43;21.29
31595;BME280;18200;48.726;8.892;2023-06-22T10:40:40;96567.88;;;43.91;23.62
31595;BME280;18200;48.726;8.892;2023-06-22T10:44:40;96563.63;;;44.44;22.45
31595;BME280;18200;48.726;8.892;2023-06-22T10:48:43;96567.00;;;43.47;23.11
31595;BME280;18200;48.726;8.892;2023-06-22T10:52:43;96558.47;;;43.72;23.72
31595;BME280;18200;48.726;8.892;2023-06-22T10:56:44;96558.78;;;44.90;21.62
31595;BME280;18200;48.726;8.892;2023-06-22T11:00:44;96564.56;;;44.56;22.26
31595;BME280;18200;48.726;8.892;2023-06-22T11:04:45;96559.53;;;45.46;21.51
31595;BME280;18200;48.726;8.892;2023-06-22T11:08:46;96575.97;;;45.38;22.05
31595;BME280;18200;48.726;8.892;2023-06-22T11:12:46;96560.63;;;44.42;22.76
31595;BME280;18200;48.726;8.892;2023-06-22T11:16:47;96561.13;;;45.20;21.62
31595;BME280;18200;48.726;8.892;2023-06-22T11:20:47;96564.94;;;45.61;21.32
31595;BME280;18200;48.726;8.892;2023-06-22T11:24:49;96549.25;;;46.08;20.90
31595;BME280;18200;48.726;8.892;2023-06-22T11:28:49;96540.47;;;45.10;22.49
31595;BME280;18200;48.726;8.892;2023-06-22T11:32:50;96532.81;;;45.78;21.55
31595;BME280;18200;48.726;8.892;2023-06-22T11:36:50;96537.00;;;45.77;21.34
31595;BME280;18200;48.726;8.892;2023-06-22T11:40:50;96538.19;;;45.74;21.28
31595;BME280;18200;48.726;8.892;2023-06-22T11:44:51;96539.38;;;45.90;20.96
31595;BME280;18200;48.726;8.892;2023-06-22T11:48:51;96548.75;;;45.35;21.74
31595;BME280;18200;48.726;8.892;2023-06-22T11:52:52;96564.44;;;44.81;22.26
31595;BME280;18200;48.726;8.892;2023-06-22T11:56:53;96569.44;;;44.19;23.34
31595;BME280;18200;48.726;8.892;2023-06-22T12:00:54;96581.34;;;44.61;22.54
31595;BME280;18200;48.726;8.892;2023-06-22T12:04:54;96581.28;;;44.35;22.93
31595;BME280;18200;48.726;8.892;2023-06-22T12:08:56;96560.44;;;44.93;22.61
31595;BME280;18200;48.726;8.892;2023-06-22T12:12:56;96552.78;;;45.22;21.71
31595;BME280;18200;48.726;8.892;2023-06-22T12:17:00;96547.25;;;44.52;22.01
31595;BME280;18200;48.726;8.892;2023-06-22T12:21:00;96559.88;;;45.04;21.88
31595;BME280;18200;48.726;8.892;2023-06-22T12:25:01;96569.06;;;45.31;21.68
31595;BME280;18200;48.726;8.892;2023-06-22T12:29:01;96562.03;;;45.32;22.57
31595;BME280;18200;48.726;8.892;2023-06-22T12:33:02;96571.16;;;44.85;22.65
31595;BME280;18200;48.726;8.892;2023-06-22T12:37:02;96569.13;;;45.70;21.36
31595;BME280;18200;48.726;8.892;2023-06-22T12:41:04;96570.84;;;45.36;22.00
31595;BME280;18200;48.726;8.892;2023-06-22T12:45:05;96575.41;;;45.03;22.71
31595;BME280;18200;48.726;8.892;2023-06-22T12:49:05;96580.31;;;45.49;22.31
31595;BME280;18200;48.726;8.892;2023-06-22T12:53:06;96580.91;;;44.65;23.65
31595;BME280;18200;48.726;8.892;2023-06-22T12:57:06;96583.13;;;44.66;23.82
31595;BME280;18200;48.726;8.892;2023-06-22T13:01:06;96585.91;;;44.30;23.93
31595;BME280;18200;48.726;8.892;2023-06-22T13:05:07;96592.03;;;44.80;23.54
31595;BME280;18200;48.726;8.892;2023-06-22T13:09:09;96588.63;;;44.55;23.29
31595;BME280;18200;48.726;8.892;2023-06-22T13:13:10;96578.91;;;44.58;23.41
31595;BME280;18200;48.726;8.892;2023-06-22T13:17:10;96570.84;;;44.81;22.94
31595;BME280;18200;48.726;8.892;2023-06-22T13:21:11;96559.13;;;45.04;22.30
31595;BME280;18200;48.726;8.892;2023-06-22T13:25:11;96541.41;;;45.22;22.81
31595;BME280;18200;48.726;8.892;2023-06-22T13:29:13;96545.63;;;45.41;22.03
31595;BME280;18200;48.726;8.892;2023-06-22T13:33:13;96543.88;;;45.74;22.84
31595;BME280;18200;48.726;8.892;2023-06-22T13:37:14;96545.94;;;45.45;22.47
31595;BME280;18200;48.726;8.892;2023-06-22T13:41:14;96537.34;;;45.16;22.01
31595;BME280;18200;48.726;8.892;2023-06-22T13:45:15;96534.03;;;44.11;22.96
31595;BME280;18200;48.726;8.892;2023-06-22T13:49:17;96517.78;;;45.10;22.94
31595;BME280;18200;48.726;8.892;2023-06-22T13:53:18;96497.75;;;45.08;21.96
31595;BME280;18200;48.726;8.892;2023-06-22T13:57:18;96492.75;;;44.44;22.99
31595;BME280;18200;48.726;8.892;2023-06-22T14:01:19;96495.59;;;44.80;22.91
31595;BME280;18200;48.726;8.892;2023-06-22T14:05:20;96483.78;;;45.68;21.79
31595;BME280;18200;48.726;8.892;2023-06-22T14:09:21;96486.13;;;44.32;23.40
31595;BME280;18200;48.726;8.892;2023-06-22T14:13:21;96481.06;;;43.86;23.18
31595;BME280;18200;48.726;8.892;2023-06-22T14:17:21;96489.44;;;44.11;21.89
31595;BME280;18200;48.726;8.892;2023-06-22T14:21:25;96495.06;;;42.17;20.67
31595;BME280;18200;48.726;8.892;2023-06-22T14:25:26;96488.06;;;44.29;18.13
31595;BME280;18200;48.726;8.892;2023-06-22T14:29:26;96509.47;;;43.10;18.54
31595;BME280;18200;48.726;8.892;2023-06-22T14:33:26;96512.81;;;42.10;18.95
31595;BME280;18200;48.726;8.892;2023-06-22T14:37:27;96509.22;;;41.70;19.20
31595;BME280;18200;48.726;8.892;2023-06-22T14:41:27;96526.66;;;42.80;17.91
31595;BME280;18200;48.726;8.892;2023-06-22T14:45:27;96517.88;;;42.44;18.44
31595;BME280;18200;48.726;8.892;2023-06-22T14:49:28;96508.22;;;42.22;18.76
31595;BME280;18200;48.726;8.892;2023-06-22T14:53:28;96489.75;;;42.54;18.54
31595;BME280;18200;48.726;8.892;2023-06-22T14:57:28;96487.34;;;41.78;18.86
31595;BME280;18200;48.726;8.892;2023-06-22T15:01:29;96496.72;;;43.02;18.57
31595;BME280;18200;48.726;8.892;2023-06-22T15:05:29;96485.94;;;44.47;16.84
31595;BME280;18200;48.726;8.892;2023-06-22T15:09:30;96467.47;;;44.29;16.54
31595;BME280;18200;48.726;8.892;2023-06-22T15:13:31;96463.31;;;44.39;17.02
31595;BME280;18200;48.726;8.892;2023-06-22T15:17:34;96470.19;;;44.36;16.91
31595;BME280;18200;48.726;8.892;2023-06-22T15:21:35;96460.47;;;43.42;17.75
31595;BME280;18200;48.726;8.892;2023-06-22T15:25:35;96464.44;;;43.22;18.36
31595;BME280;18200;48.726;8.892;2023-06-22T15:29:36;96465.84;;;42.22;19.10
31595;BME280;18200;48.726;8.892;2023-06-22T15:33:36;96468.91;;;43.93;17.64
31595;BME280;18200;48.726;8.892;2023-06-22T15:37:37;96454.97;;;43.44;18.20
31595;BME280;18200;48.726;8.892;2023-06-22T15:41:40;96443.47;;;43.08;18.61
31595;BME280;18200;48.726;8.892;2023-06-22T15:45:43;96460.88;;;44.26;17.95
31595;BME280;18200;48.726;8.892;2023-06-22T15:49:44;96456.28;;;43.09;18.20
31595;BME280;18200;48.726;8.892;2023-06-22T15:53:44;96447.41;;;43.12;18.53
31595;BME280;18200;48.726;8.892;2023-06-22T15:57:45;96445.97;;;41.18;20.55
31595;BME280;18200;48.726;8.892;2023-06-22T16:01:46;96456.03;;;42.23;19.68
31595;BME280;18200;48.726;8.892;2023-06-22T16:05:47;96464.84;;;42.77;19.43
31595;BME280;18200;48.726;8.892;2023-06-22T16:09:47;96447.22;;;44.06;18.45
31595;BME280;18200;48.726;8.892;2023-06-22T16:13:48;96448.66;;;42.28;20.41
31595;BME280;18200;48.726;8.892;2023-06-22T16:17:48;96460.81;;;42.13;20.21
31595;BME280;18200;48.726;8.892;2023-06-22T16:21:48;96439.38;;;42.60;19.93
31595;BME280;18200;48.726;8.892;2023-06-22T16:25:49;96449.94;;;42.34;20.07
31595;BME280;18200;48.726;8.892;2023-06-22T16:29:50;96423.25;;;42.53;19.35
31595;BME280;18200;48.726;8.892;2023-06-22T16:33:51;96416.47;;;41.04;20.86
31595;BME280;18200;48.726;8.892;2023-06-22T16:37:53;96410.84;;;39.91;21.90
31595;BME280;18200;48.726;8.892;2023-06-22T16:41:54;96389.88;;;40.52;21.18
31595;BME280;18200;48.726;8.892;2023-06-22T16:45:54;96371.75;;;39.65;21.88
31595;BME280;18200;48.726;8.892;2023-06-22T16:49:55;96372.16;;;40.74;21.33
31595;BME280;18200;48.726;8.892;2023-06-22T16:53:56;96387.19;;;41.47;20.88
31595;BME280;18200;48.726;8.892;2023-06-22T16:57:57;96408.56;;;41.25;20.88
31595;BME280;18200;48.726;8.892;2023-06-22T17:01:58;96406.75;;;40.97;21.81
31595;BME280;18200;48.726;8.892;2023-06-22T17:06:01;96423.97;;;41.24;21.65
31595;BME280;18200;48.726;8.892;2023-06-22T17:10:06;96447.31;;;41.02;21.53
31595;BME280;18200;48.726;8.892;2023-06-22T17:14:07;96452.41;;;40.58;22.38
31595;BME280;18200;48.726;8.892;2023-06-22T17:18:08;96469.41;;;40.00;22.70
31595;BME280;18200;48.726;8.892;2023-06-22T17:22:09;96445.34;;;39.84;23.27
31595;BME280;18200;48.726;8.892;2023-06-22T17:26:09;96448.59;;;40.10;22.83
31595;BME280;18200;48.726;8.892;2023-06-22T17:30:11;96457.47;;;39.28;23.58
31595;BME280;18200;48.726;8.892;2023-06-22T17:34:17;96465.72;;;40.35;22.65
31595;BME280;18200;48.726;8.892;2023-06-22T17:38:21;96473.34;;;39.97;22.69
31595;BME280;18200;48.726;8.892;2023-06-22T17:42:27;96486.59;;;39.74;23.54
31595;BME280;18200;48.726;8.892;2023-06-22T17:46:37;96486.22;;;39.85;23.42
31595;BME280;18200;48.726;8.892;2023-06-22T17:50:39;96499.22;;;39.52;23.66
31595;BME280;18200;48.726;8.892;2023-06-22T17:54:40;96489.00;;;38.57;24.85
31595;BME280;18200;48.726;8.892;2023-06-22T17:58:55;96464.13;;;38.61;25.69
31595;BME280;18200;48.726;8.892;2023-06-22T18:02:56;96473.00;;;36.27;28.70
31595;BME280;18200;48.726;8.892;2023-06-22T18:06:57;96480.91;;;39.02;26.04
31595;BME280;18200;48.726;8.892;2023-06-22T18:10:59;96504.06;;;38.13;27.32
31595;BME280;18200;48.726;8.892;2023-06-22T18:15:03;96521.78;;;38.62;26.46
31595;BME280;18200;48.726;8.892;2023-06-22T18:19:04;96532.13;;;38.26;26.21
31595;BME280;18200;48.726;8.892;2023-06-22T18:23:05;96534.25;;;38.53;26.52
31595;BME280;18200;48.726;8.892;2023-06-22T18:27:06;96509.69;;;38.13;27.25
31595;BME280;18200;48.726;8.892;2023-06-22T18:31:09;96485.13;;;37.59;26.84
31595;BME280;18200;48.726;8.892;2023-06-22T18:35:10;96479.34;;;37.77;26.42
31595;BME280;18200;48.726;8.892;2023-06-22T18:39:12;96468.78;;;37.70;27.24
31595;BME280;18200;48.726;8.892;2023-06-22T18:43:20;96477.09;;;36.26;29.18
31595;BME280;18200;48.726;8.892;2023-06-22T18:47:28;96470.56;;;37.47;27.90
31595;BME280;18200;48.726;8.892;2023-06-22T18:51:28;96449.47;;;38.14;27.20
31595;BME280;18200;48.726;8.892;2023-06-22T18:55:30;96452.56;;;37.89;27.00
31595;BME280;18200;48.726;8.892;2023-06-22T18:59:48;96452.06;;;38.53;26.32
31595;BME280;18200;48.726;8.892;2023-06-22T19:03:50;96482.75;;;38.51;26.82
31595;BME280;18200;48.726;8.892;2023-06-22T19:12:18;96503.31;;;36.74;30.11
31595;BME280;18200;48.726;8.892;2023-06-22T19:16:28;96511.88;;;36.63;29.58
31595;BME280;18200;48.726;8.892;2023-06-22T19:20:32;96513.81;;;36.54;30.40
31595;BME280;18200;48.726;8.892;2023-06-22T19:24:49;96529.97;;;36.62;30.19
31595;BME280;18200;48.726;8.892;2023-06-22T19:28:52;96533.69;;;36.01;30.68
31595;BME280;18200;48.726;8.892;2023-06-22T19:32:55;96532.09;;;36.55;30.25
31595;BME280;18200;48.726;8.892;2023-06-22T19:36:59;96538.06;;;36.15;30.83
31595;BME280;18200;48.726;8.892;2023-06-22T19:41:00;96540.78;;;35.83;31.03
31595;BME280;18200;48.726;8.892;2023-06-22T19:45:01;96542.44;;;36.10;30.75
31595;BME280;18200;48.726;8.892;2023-06-22T19:49:03;96552.22;;;36.22;30.39
31595;BME280;18200;48.726;8.892;2023-06-22T19:53:07;96554.94;;;36.59;30.06
31595;BME280;18200;48.726;8.892;2023-06-22T19:57:07;96576.34;;;36.07;30.68
31595;BME280;18200;48.726;8.892;2023-06-22T20:01:09;96605.97;;;35.97;30.30
31595;BME280;18200;48.726;8.892;2023-06-22T20:05:11;96618.53;;;36.27;30.32
31595;BME280;18200;48.726;8.892;2023-06-22T20:09:13;96615.41;;;35.69;30.91
31595;BME280;18200;48.726;8.892;2023-06-22T20:13:19;96633.06;;;34.29;33.93
31595;BME280;18200;48.726;8.892;2023-06-22T20:17:22;96634.03;;;33.85;34.75
31595;BME280;18200;48.726;8.892;2023-06-22T20:21:23;96620.88;;;34.32;33.96
31595;BME280;18200;48.726;8.892;2023-06-22T20:25:24;96633.41;;;33.18;36.33
31595;BME280;18200;48.726;8.892;2023-06-22T20:29:32;96619.97;;;33.50;35.45
31595;BME280;18200;48.726;8.892;2023-06-22T20:33:36;96650.34;;;33.53;35.86
31595;BME280;18200;48.726;8.892;2023-06-22T20:37:36;96644.31;;;32.77;37.64
31595;BME280;18200;48.726;8.892;2023-06-22T20:41:37;96651.53;;;33.86;35.83
31595;BME280;18200;48.726;8.892;2023-06-22T20:45:38;96612.34;;;31.22;39.64
31595;BME280;18200;48.726;8.892;2023-06-22T20:49:39;96603.91;;;31.95;38.86
31595;BME280;18200;48.726;8.892;2023-06-22T20:53:39;96592.72;;;33.84;35.30
31595;BME280;18200;48.726;8.892;2023-06-22T20:57:39;96591.63;;;33.35;35.85
31595;BME280;18200;48.726;8.892;2023-06-22T21:01:41;96605.03;;;33.36;36.78
31595;BME280;18200;48.726;8.892;2023-06-22T21:05:46;96608.72;;;32.00;39.60
31595;BME280;18200;48.726;8.892;2023-06-22T21:09:46;96610.13;;;32.55;38.30
31595;BME280;18200;48.726;8.892;2023-06-22T21:13:46;96625.75;;;33.57;36.07
31595;BME280;18200;48.726;8.892;2023-06-22T21:17:47;96647.34;;;33.18;35.97
31595;BME280;18200;48.726;8.892;2023-06-22T21:21:50;96666.59;;;33.11;35.49
31595;BME280;18200;48.726;8.892;2023-06-22T21:25:51;96672.25;;;34.07;33.43
31595;BME280;18200;48.726;8.892;2023-06-22T21:29:51;96660.25;;;33.10;34.46